Aviation Digital Data Service (ADDS)

Output produced by TAFs form (0644 UTC 18 February 2018)
found at http://www.aviationweather.gov/adds/tafs/
 
METAR text: RJDC 180600Z 17007KT 9999 FEW030 SCT150 BKN/// 08/00 Q1021
Conditions at: RJDC (YAMAGUCHI/UBE AR, JP) observed 0600 UTC 18 February 2018
Temperature: 8.0°C (46°F)
Dewpoint: 0.0°C (32°F) [RH = 57%]
Pressure (altimeter): 30.15 inches Hg (1021.0 mb)
Winds: from the S (170 degrees) at 8 MPH (7 knots; 3.6 m/s)
Visibility: 6 or more miles (10+ km)
Ceiling: at least 12,000 feet AGL
Clouds: few clouds at 3000 feet AGL
scattered clouds at 15000 feet AGL
Weather: no significant weather observed at this time